createdAt,value
2023-03-28T00:00:42.961Z,100065.53
2023-03-28T00:03:09.795Z,100075.13
2023-03-28T00:05:39.784Z,100078.34
2023-03-28T00:08:06.746Z,100079.59
2023-03-28T00:10:33.850Z,100073.69
2023-03-28T00:13:00.289Z,100086.91
2023-03-28T00:15:28.108Z,100084.28
2023-03-28T00:17:54.531Z,100077.66
2023-03-28T00:20:21.325Z,100079.97
2023-03-28T00:22:47.761Z,100075.88
2023-03-28T00:25:14.165Z,100080.81
2023-03-28T00:27:40.555Z,100081.03
2023-03-28T00:30:08.289Z,100087.31
2023-03-28T00:32:35.195Z,100085.56
2023-03-28T00:35:04.177Z,100078.69
2023-03-28T00:37:30.606Z,100086.59
2023-03-28T00:40:01.519Z,100091.00
2023-03-28T00:42:28.020Z,100088.38
2023-03-28T00:44:58.449Z,100091.09
2023-03-28T00:47:24.969Z,100085.06
2023-03-28T00:49:55.660Z,100087.88
2023-03-28T00:52:25.248Z,100085.38
2023-03-28T00:54:54.015Z,100091.59
2023-03-28T00:57:20.784Z,100088.19
2023-03-28T00:59:47.420Z,100082.56
2023-03-28T01:02:13.933Z,100071.28
2023-03-28T01:04:54.906Z,100070.81
2023-03-28T01:07:21.504Z,100076.28
2023-03-28T01:09:49.516Z,100072.13
2023-03-28T01:12:18.080Z,100068.41
2023-03-28T01:17:11.844Z,100062.88
2023-03-28T01:19:56.684Z,100069.38
2023-03-28T01:22:43.368Z,100061.28
2023-03-28T01:25:45.943Z,100057.34
2023-03-28T01:28:30.718Z,100057.47
2023-03-28T01:31:28.326Z,100052.31
2023-03-28T01:34:19.034Z,100052.59
2023-03-28T01:36:54.529Z,100046.41
2023-03-28T01:39:42.570Z,100055.97
2023-03-28T01:42:41.447Z,100055.69
2023-03-28T01:45:23.106Z,100048.63
2023-03-28T01:48:05.170Z,100053.81
2023-03-28T01:50:44.292Z,100055.69
2023-03-28T01:53:27.907Z,100049.97
2023-03-28T01:55:59.060Z,100054.59
2023-03-28T01:58:35.541Z,100063.69
2023-03-28T02:01:07.013Z,100063.88
2023-03-28T02:03:38.857Z,100066.03
2023-03-28T02:06:08.967Z,100068.84
2023-03-28T02:08:39.395Z,100065.19
2023-03-28T02:11:06.715Z,100065.28
2023-03-28T02:13:39.813Z,100064.91
2023-03-28T02:16:09.620Z,100065.19
2023-03-28T02:18:41.016Z,100055.91
2023-03-28T02:21:15.682Z,100066.22
2023-03-28T02:23:50.389Z,100064.28
2023-03-28T02:26:17.458Z,100068.84
2023-03-28T02:28:46.817Z,100070.63
2023-03-28T02:31:13.503Z,100071.66
2023-03-28T02:33:41.184Z,100056.22
2023-03-28T02:36:26.828Z,100055.56
2023-03-28T02:39:02.607Z,100055.84
2023-03-28T02:42:03.274Z,100053.22
2023-03-28T02:44:29.736Z,100060.44
2023-03-28T02:47:30.545Z,100050.22
2023-03-28T02:49:59.961Z,100047.78
2023-03-28T02:52:53.665Z,100058.47
2023-03-28T02:55:48.307Z,100051.44
2023-03-28T02:58:31.226Z,100043.66
2023-03-28T03:00:57.901Z,100046.56
2023-03-28T03:03:24.489Z,100045.72
2023-03-28T03:05:51.044Z,100059.38
2023-03-28T03:08:17.461Z,100061.16
2023-03-28T03:10:43.845Z,100062.13
2023-03-28T03:13:10.433Z,100061.47
2023-03-28T03:15:36.999Z,100064.63
2023-03-28T03:18:03.961Z,100065.00
2023-03-28T03:20:30.882Z,100059.09
2023-03-28T03:22:57.566Z,100064.63
2023-03-28T03:25:24.136Z,100063.97
2023-03-28T03:27:50.979Z,100059.81
2023-03-28T03:30:17.750Z,100051.41
2023-03-28T03:32:44.615Z,100055.59
2023-03-28T03:35:11.766Z,100050.38
2023-03-28T03:37:38.401Z,100053.19
2023-03-28T03:40:05.623Z,100036.16
2023-03-28T03:42:33.413Z,100035.78
2023-03-28T03:44:59.983Z,100028.19
2023-03-28T03:47:26.760Z,100020.78
2023-03-28T03:49:54.815Z,100010.84
2023-03-28T03:52:21.734Z,100011.88
2023-03-28T03:54:48.240Z,100000.91
2023-03-28T03:57:14.757Z,99996.88
2023-03-28T03:59:41.626Z,99991.75
2023-03-28T04:02:08.150Z,99986.03
2023-03-28T04:04:34.724Z,99980.03
2023-03-28T04:07:01.406Z,99979.00
2023-03-28T04:09:28.217Z,99982.47
2023-03-28T04:11:55.692Z,99980.78
2023-03-28T04:14:22.310Z,99972.47
2023-03-28T04:16:49.244Z,99973.59
2023-03-28T04:19:16.021Z,99975.44
2023-03-28T04:21:43.727Z,99980.22
2023-03-28T04:24:10.162Z,99984.78
2023-03-28T04:26:36.538Z,99996.19
2023-03-28T04:29:02.973Z,100000.69
2023-03-28T04:31:29.994Z,100004.31
2023-03-28T04:33:57.067Z,99996.53
2023-03-28T04:36:23.632Z,100007.78
2023-03-28T04:38:50.418Z,100014.69
2023-03-28T04:41:17.089Z,100009.75
2023-03-28T04:43:44.194Z,100016.09
2023-03-28T04:46:10.688Z,100026.03
2023-03-28T04:48:37.776Z,100025.69
2023-03-28T04:51:05.100Z,100035.31
2023-03-28T04:53:31.484Z,100029.31
2023-03-28T04:55:58.121Z,100040.72
2023-03-28T04:58:24.612Z,100037.09
2023-03-28T05:00:51.228Z,100042.72
2023-03-28T05:03:20.463Z,100041.88
2023-03-28T05:05:48.639Z,100040.19
2023-03-28T05:08:16.837Z,100038.22
2023-03-28T05:10:45.071Z,100046.53
2023-03-28T05:13:11.708Z,100049.69
2023-03-28T05:15:38.497Z,100048.84
2023-03-28T05:18:05.252Z,100054.16
2023-03-28T05:20:32.790Z,100058.13
2023-03-28T05:22:59.570Z,100066.56
2023-03-28T05:25:26.317Z,100062.94
2023-03-28T05:27:52.751Z,100067.16
2023-03-28T05:30:19.673Z,100065.91
2023-03-28T05:32:46.430Z,100077.38
2023-03-28T05:35:15.085Z,100080.94
2023-03-28T05:37:44.126Z,100086.50
2023-03-28T05:40:13.796Z,100095.19
2023-03-28T05:42:40.527Z,100103.66
2023-03-28T05:45:09.143Z,100100.69
2023-03-28T05:47:35.742Z,100104.91
2023-03-28T05:50:03.544Z,100111.66
2023-03-28T05:52:30.281Z,100116.81
2023-03-28T05:54:56.750Z,100126.44
2023-03-28T05:57:23.892Z,100130.66
2023-03-28T05:59:50.501Z,100138.16
2023-03-28T06:02:19.406Z,100148.97
2023-03-28T06:04:46.221Z,100158.06
2023-03-28T06:07:13.321Z,100161.75
2023-03-28T06:09:40.900Z,100173.41
2023-03-28T06:12:07.875Z,100172.19
2023-03-28T06:14:34.740Z,100167.06
2023-03-28T06:17:01.230Z,100170.16
2023-03-28T06:19:27.912Z,100169.78
2023-03-28T06:21:54.380Z,100171.03
2023-03-28T06:24:20.800Z,100176.75
2023-03-28T06:26:47.277Z,100180.47
2023-03-28T06:29:13.710Z,100174.66
2023-03-28T06:31:40.315Z,100180.88
2023-03-28T06:34:06.853Z,100190.06
2023-03-28T06:36:33.365Z,100190.44
2023-03-28T06:38:59.757Z,100205.13
2023-03-28T06:41:26.652Z,100201.94
2023-03-28T06:43:53.246Z,100216.94
2023-03-28T06:46:20.177Z,100220.50
2023-03-28T06:48:47.038Z,100222.25
2023-03-28T06:51:13.696Z,100227.69
2023-03-28T06:53:40.103Z,100240.81
2023-03-28T06:56:07.252Z,100251.75
2023-03-28T06:58:33.978Z,100264.44
2023-03-28T07:01:00.629Z,100279.72
2023-03-28T07:03:27.523Z,100291.84
2023-03-28T07:05:53.926Z,100314.63
2023-03-28T07:08:20.326Z,100331.38
2023-03-28T07:10:47.069Z,100335.63
2023-03-28T07:13:14.302Z,100337.84
2023-03-28T07:15:40.901Z,100341.03
2023-03-28T07:18:07.561Z,100331.97
2023-03-28T07:20:33.954Z,100322.72
2023-03-28T07:23:00.632Z,100310.78
2023-03-28T07:25:27.171Z,100306.88
2023-03-28T07:27:53.926Z,100293.28
2023-03-28T07:30:20.425Z,100306.13
2023-03-28T07:32:55.519Z,100305.34
2023-03-28T07:35:23.908Z,100285.09
2023-03-28T07:37:50.455Z,100275.50
2023-03-28T07:40:17.041Z,100254.72
2023-03-28T07:42:43.438Z,100227.66
2023-03-28T07:45:10.400Z,100213.22
2023-03-28T07:47:36.788Z,100163.50
2023-03-28T07:50:03.476Z,100120.09
2023-03-28T07:52:29.897Z,100099.22
2023-03-28T07:54:56.291Z,100094.59
2023-03-28T07:57:22.698Z,100100.34
2023-03-28T07:59:49.359Z,100112.59
2023-03-28T08:02:16.381Z,100107.03
2023-03-28T08:04:43.693Z,100018.78
2023-03-28T08:07:10.451Z,100033.38
2023-03-28T08:09:36.872Z,100035.56
2023-03-28T08:12:03.369Z,100004.19
2023-03-28T08:14:29.981Z,99995.06
2023-03-28T08:16:56.411Z,99997.78
2023-03-28T08:19:23.939Z,99953.28
2023-03-28T08:21:50.989Z,99944.25
2023-03-28T08:24:29.001Z,99949.34
2023-03-28T08:26:59.679Z,99950.81
2023-03-28T08:29:26.285Z,99966.19
2023-03-28T08:31:53.077Z,99969.72
2023-03-28T08:34:19.762Z,99962.88
2023-03-28T08:36:46.504Z,99963.94
2023-03-28T08:39:13.385Z,99960.25
2023-03-28T08:41:51.812Z,99958.78
2023-03-28T08:44:34.650Z,99957.78
2023-03-28T08:47:18.909Z,99937.38
2023-03-28T08:49:54.563Z,99930.25
2023-03-28T08:52:21.707Z,99913.66
2023-03-28T08:55:26.098Z,99895.06
2023-03-28T08:57:54.723Z,99880.22
2023-03-28T09:00:32.450Z,99871.81
2023-03-28T09:03:00.543Z,99876.25
2023-03-28T09:05:52.064Z,99875.66
2023-03-28T09:08:33.127Z,99875.69
2023-03-28T09:11:30.676Z,99885.03
2023-03-28T09:14:14.770Z,99881.31
2023-03-28T09:16:59.184Z,99878.78
2023-03-28T09:19:51.070Z,99875.69
2023-03-28T09:22:45.218Z,99867.63
2023-03-28T09:25:20.948Z,99875.56
2023-03-28T09:28:03.818Z,99875.28
2023-03-28T09:30:51.698Z,99874.34
2023-03-28T09:33:34.310Z,99867.91
2023-03-28T09:36:02.508Z,99877.94
2023-03-28T09:38:38.828Z,99872.25
2023-03-28T09:41:14.931Z,99871.38
2023-03-28T09:43:56.245Z,99867.47
2023-03-28T09:46:30.548Z,99863.13
2023-03-28T09:48:57.922Z,99860.47
2023-03-28T09:51:24.754Z,99863.97
2023-03-28T09:53:51.111Z,99864.69
2023-03-28T09:56:47.893Z,99870.38
2023-03-28T09:59:27.779Z,99861.59
2023-03-28T10:01:55.964Z,99862.88
2023-03-28T10:04:28.481Z,99853.22
2023-03-28T10:07:15.606Z,99854.44
2023-03-28T10:09:56.715Z,99851.50
2023-03-28T10:12:32.360Z,99848.56
2023-03-28T10:14:59.173Z,99853.25
2023-03-28T10:17:32.817Z,99855.66
2023-03-28T10:20:03.816Z,99838.69
2023-03-28T10:22:35.488Z,99838.81
2023-03-28T10:25:05.411Z,99834.63
2023-03-28T10:27:35.244Z,99839.97
2023-03-28T10:30:25.459Z,99836.97
2023-03-28T10:33:18.054Z,99843.16
2023-03-28T10:35:47.468Z,99835.16
2023-03-28T10:38:19.120Z,99829.84
2023-03-28T10:40:59.785Z,99819.19
2023-03-28T10:43:35.796Z,99825.28
2023-03-28T10:46:05.750Z,99829.00
2023-03-28T10:48:35.588Z,99825.66
2023-03-28T10:51:04.970Z,99832.84
2023-03-28T10:54:11.109Z,99818.75
2023-03-28T10:56:57.657Z,99828.13
2023-03-28T10:59:57.612Z,99824.25
2023-03-28T11:02:51.692Z,99821.13
2023-03-28T11:05:31.882Z,99832.44
2023-03-28T11:08:40.370Z,99822.59
2023-03-28T11:11:45.353Z,99820.06
2023-03-28T11:14:22.413Z,99819.84
2023-03-28T11:17:04.115Z,99823.38
2023-03-28T11:20:08.048Z,99815.84
2023-03-28T11:22:34.642Z,99805.53
2023-03-28T11:25:28.539Z,99805.72
2023-03-28T11:28:21.414Z,99812.31
2023-03-28T11:30:52.613Z,99809.34
2023-03-28T11:33:32.087Z,99811.56
2023-03-28T11:36:16.865Z,99801.91
2023-03-28T11:38:51.152Z,99797.81
2023-03-28T11:41:21.160Z,99795.06
2023-03-28T11:44:00.867Z,99797.97
2023-03-28T11:46:31.492Z,99801.81
2023-03-28T11:49:16.405Z,99787.22
2023-03-28T11:51:55.833Z,99777.19
2023-03-28T11:54:28.485Z,99787.84
2023-03-28T11:57:13.654Z,99778.69
2023-03-28T12:00:04.930Z,99772.53
2023-03-28T12:02:31.729Z,99773.59
2023-03-28T12:05:26.626Z,99767.34
2023-03-28T12:08:02.584Z,99767.88
2023-03-28T12:10:32.372Z,99757.19
2023-03-28T12:13:04.695Z,99751.84
2023-03-28T12:15:58.518Z,99759.84
2023-03-28T12:18:34.003Z,99754.00
2023-03-28T12:21:31.646Z,99742.38
2023-03-28T12:24:21.279Z,99737.00
2023-03-28T12:27:02.940Z,99736.53
2023-03-28T12:30:03.004Z,99722.34
2023-03-28T12:32:51.567Z,99723.22
2023-03-28T12:35:36.816Z,99719.53
2023-03-28T12:38:28.066Z,99715.06
2023-03-28T12:41:02.605Z,99708.19
2023-03-28T12:43:57.601Z,99707.84
2023-03-28T12:46:29.675Z,99719.88
2023-03-28T12:48:58.992Z,99715.72
2023-03-28T12:51:32.388Z,99707.84
2023-03-28T12:54:15.718Z,99704.44
2023-03-28T12:56:46.104Z,99709.16
2023-03-28T12:59:44.419Z,99698.13
2023-03-28T13:02:13.643Z,99702.53
2023-03-28T13:05:15.967Z,99698.50
2023-03-28T13:08:25.426Z,99698.84
2023-03-28T13:11:05.068Z,99700.88
2023-03-28T13:13:43.739Z,99696.22
2023-03-28T13:16:24.931Z,99700.78
2023-03-28T13:19:13.804Z,99690.19
2023-03-28T13:21:54.179Z,99687.31
2023-03-28T13:24:26.381Z,99684.69
2023-03-28T13:27:32.001Z,99681.97
2023-03-28T13:30:01.646Z,99681.81
2023-03-28T13:32:34.342Z,99675.66
2023-03-28T13:35:06.440Z,99667.81
2023-03-28T13:37:47.495Z,99669.06
2023-03-28T13:41:08.703Z,99655.38
2023-03-28T13:43:36.192Z,99662.09
2023-03-28T13:46:25.995Z,99663.00
2023-03-28T13:49:01.105Z,99661.59
2023-03-28T13:51:33.910Z,99653.69
2023-03-28T13:54:00.878Z,99660.78
2023-03-28T13:56:35.504Z,99651.47
2023-03-28T13:59:07.708Z,99650.44
2023-03-28T14:01:41.848Z,99652.63
2023-03-28T14:04:18.813Z,99635.75
2023-03-28T14:06:45.479Z,99626.69
2023-03-28T14:09:30.271Z,99625.47
2023-03-28T14:12:01.078Z,99611.44
2023-03-28T14:14:41.637Z,99611.16
2023-03-28T14:17:14.147Z,99614.88
2023-03-28T14:19:48.266Z,99614.72
2023-03-28T14:22:17.085Z,99606.25
2023-03-28T14:24:47.286Z,99602.91
2023-03-28T14:27:16.135Z,99588.91
2023-03-28T14:29:52.777Z,99579.94
2023-03-28T14:32:26.169Z,99575.44
2023-03-28T14:34:52.914Z,99570.28
2023-03-28T14:37:20.422Z,99574.16
2023-03-28T14:39:46.861Z,99574.72
2023-03-28T14:42:18.912Z,99560.25
2023-03-28T14:44:50.736Z,99551.84
2023-03-28T14:47:26.456Z,99540.66
2023-03-28T14:49:53.301Z,99548.59
2023-03-28T14:52:28.994Z,99543.41
2023-03-28T14:54:57.136Z,99532.38
2023-03-28T14:57:24.625Z,99538.13
2023-03-28T14:59:52.589Z,99538.22
2023-03-28T15:02:26.156Z,99541.59
2023-03-28T15:04:54.878Z,99525.66
2023-03-28T15:07:26.957Z,99529.28
2023-03-28T15:10:10.153Z,99522.63
2023-03-28T15:12:47.179Z,99521.56
2023-03-28T15:15:35.490Z,99511.91
2023-03-28T15:18:06.874Z,99499.47
2023-03-28T15:20:36.852Z,99505.88
2023-03-28T15:23:07.640Z,99500.56
2023-03-28T15:25:35.133Z,99493.91
2023-03-28T15:28:06.412Z,99487.56
2023-03-28T15:30:35.606Z,99493.56
2023-03-28T15:33:05.500Z,99484.97
2023-03-28T15:35:40.657Z,99475.63
2023-03-28T15:38:15.119Z,99478.72
2023-03-28T15:40:50.345Z,99473.06
2023-03-28T15:43:25.913Z,99471.66
2023-03-28T15:46:03.567Z,99465.28
2023-03-28T15:48:33.930Z,99458.78
2023-03-28T15:51:04.936Z,99451.44
2023-03-28T15:53:32.040Z,99455.88
2023-03-28T15:56:13.968Z,99451.25
2023-03-28T15:58:43.822Z,99440.69
2023-03-28T16:01:30.421Z,99444.66
2023-03-28T16:04:27.924Z,99445.22
2023-03-28T16:07:15.627Z,99450.06
2023-03-28T16:09:42.351Z,99445.88
2023-03-28T16:12:13.064Z,99443.56
2023-03-28T16:14:50.996Z,99442.31
2023-03-28T16:17:17.511Z,99429.03
2023-03-28T16:19:43.991Z,99435.66
2023-03-28T16:22:10.415Z,99430.81
2023-03-28T16:24:36.775Z,99419.88
2023-03-28T16:27:03.465Z,99412.38
2023-03-28T16:29:30.228Z,99406.59
2023-03-28T16:31:56.682Z,99408.97
2023-03-28T16:34:23.161Z,99413.66
2023-03-28T16:36:49.630Z,99410.47
2023-03-28T16:39:16.046Z,99412.28
2023-03-28T16:41:42.417Z,99402.31
2023-03-28T16:44:09.174Z,99402.66
2023-03-28T16:46:36.390Z,99401.63
2023-03-28T16:49:02.801Z,99403.00
2023-03-28T16:51:29.554Z,99398.16
2023-03-28T16:53:56.063Z,99398.69
2023-03-28T16:56:22.654Z,99401.81
2023-03-28T16:58:49.010Z,99391.81
2023-03-28T17:01:16.068Z,99397.50
2023-03-28T17:03:42.650Z,99389.19
2023-03-28T17:06:10.602Z,99384.91
2023-03-28T17:08:38.272Z,99384.72
2023-03-28T17:11:10.016Z,99373.75
2023-03-28T17:13:38.338Z,99367.28
2023-03-28T17:16:06.232Z,99364.28
2023-03-28T17:18:32.661Z,99358.00
2023-03-28T17:21:05.563Z,99358.97
2023-03-28T17:23:33.244Z,99357.16
2023-03-28T17:26:00.384Z,99351.31
2023-03-28T17:28:28.345Z,99354.31
2023-03-28T17:30:58.603Z,99349.50
2023-03-28T17:33:25.777Z,99348.34
2023-03-28T17:35:52.277Z,99341.19
2023-03-28T17:38:18.652Z,99338.56
2023-03-28T17:40:49.011Z,99332.88
2023-03-28T17:43:16.158Z,99325.56
2023-03-28T17:45:42.646Z,99336.03
2023-03-28T17:48:09.188Z,99332.38
2023-03-28T17:50:36.040Z,99329.22
2023-03-28T17:53:02.799Z,99320.53
2023-03-28T17:55:29.216Z,99323.34
2023-03-28T17:57:55.734Z,99312.19
2023-03-28T18:00:22.619Z,99297.75
2023-03-28T18:02:49.421Z,99300.50
2023-03-28T18:05:15.955Z,99299.97
2023-03-28T18:07:42.402Z,99296.28
2023-03-28T18:10:09.550Z,99297.75
2023-03-28T18:12:36.797Z,99306.84
2023-03-28T18:15:04.106Z,99297.56
2023-03-28T18:17:30.543Z,99293.50
2023-03-28T18:19:56.936Z,99287.38
2023-03-28T18:22:23.372Z,99290.72
2023-03-28T18:24:50.291Z,99287.69
2023-03-28T18:27:16.962Z,99278.25
2023-03-28T18:29:43.364Z,99283.75
2023-03-28T18:32:09.688Z,99284.41
2023-03-28T18:34:36.098Z,99282.91
2023-03-28T18:37:02.484Z,99283.75
2023-03-28T18:39:29.266Z,99280.78
2023-03-28T18:41:55.781Z,99283.75
2023-03-28T18:44:22.358Z,99279.25
2023-03-28T18:46:48.979Z,99280.41
2023-03-28T18:49:15.461Z,99276.81
2023-03-28T18:51:42.021Z,99270.16
2023-03-28T18:54:08.447Z,99275.47
2023-03-28T18:56:34.853Z,99272.97
2023-03-28T18:59:01.302Z,99268.19
2023-03-28T19:01:27.865Z,99277.44
2023-03-28T19:03:54.429Z,99275.75
2023-03-28T19:06:21.328Z,99272.72
2023-03-28T19:08:47.876Z,99269.06
2023-03-28T19:11:16.241Z,99267.28
2023-03-28T19:13:43.598Z,99266.25
2023-03-28T19:16:13.170Z,99264.31
2023-03-28T19:18:42.509Z,99275.06
2023-03-28T19:21:10.678Z,99264.59
2023-03-28T19:23:40.959Z,99261.56
2023-03-28T19:26:11.849Z,99268.31
2023-03-28T19:28:38.844Z,99268.63
2023-03-28T19:31:07.745Z,99268.31
2023-03-28T19:33:36.068Z,99279.06
2023-03-28T19:36:03.014Z,99285.69
2023-03-28T19:38:33.411Z,99296.72
2023-03-28T19:41:02.062Z,99296.72
2023-03-28T19:43:30.514Z,99292.25
2023-03-28T19:46:05.043Z,99291.59
2023-03-28T19:48:33.013Z,99293.72
2023-03-28T19:50:59.957Z,99302.50
2023-03-28T19:53:27.062Z,99286.72
2023-03-28T19:55:55.204Z,99280.53
2023-03-28T19:58:22.584Z,99275.63
2023-03-28T20:00:49.114Z,99275.97
2023-03-28T20:03:16.149Z,99267.72
2023-03-28T20:05:47.291Z,99272.22
2023-03-28T20:08:14.958Z,99271.56
2023-03-28T20:10:49.461Z,99276.72
2023-03-28T20:13:16.672Z,99273.38
2023-03-28T20:15:44.956Z,99261.91
2023-03-28T20:18:13.813Z,99257.25
2023-03-28T20:20:43.575Z,99248.47
2023-03-28T20:23:10.515Z,99255.06
2023-03-28T20:25:37.013Z,99265.53
2023-03-28T20:28:03.813Z,99254.22
2023-03-28T20:30:31.343Z,99255.38
2023-03-28T20:32:58.588Z,99260.16
2023-03-28T20:35:28.356Z,99262.13
2023-03-28T20:37:54.890Z,99256.00
2023-03-28T20:40:23.216Z,99252.53
2023-03-28T20:42:49.644Z,99259.81
2023-03-28T20:45:16.776Z,99239.34
2023-03-28T20:47:43.432Z,99255.34
2023-03-28T20:50:10.331Z,99244.06
2023-03-28T20:52:38.129Z,99244.41
2023-03-28T20:55:05.941Z,99259.72
2023-03-28T20:57:32.383Z,99251.22
2023-03-28T20:59:58.870Z,99252.06
2023-03-28T21:02:26.799Z,99244.09
2023-03-28T21:04:53.353Z,99256.50
2023-03-28T21:07:20.025Z,99256.50
2023-03-28T21:09:46.659Z,99266.16
2023-03-28T21:12:13.120Z,99258.19
2023-03-28T21:14:39.438Z,99262.13
2023-03-28T21:17:07.075Z,99266.28
2023-03-28T21:19:33.780Z,99260.97
2023-03-28T21:22:00.836Z,99259.91
2023-03-28T21:24:27.546Z,99248.94
2023-03-28T21:26:54.250Z,99205.72
2023-03-28T21:29:20.946Z,99183.66
2023-03-28T21:31:47.501Z,99176.31
2023-03-28T21:34:13.982Z,99171.50
2023-03-28T21:36:40.409Z,99190.44
2023-03-28T21:39:06.876Z,99177.50
2023-03-28T21:41:33.513Z,99165.41
2023-03-28T21:43:59.874Z,99170.69
2023-03-28T21:46:26.676Z,99187.44
2023-03-28T21:48:53.090Z,99185.09
2023-03-28T21:51:19.468Z,99185.50
2023-03-28T21:53:46.057Z,99177.78
2023-03-28T21:56:12.704Z,99186.44
2023-03-28T21:58:39.085Z,99206.97
2023-03-28T22:01:05.955Z,99228.34
2023-03-28T22:03:36.228Z,99230.63
2023-03-28T22:06:03.158Z,99228.16
2023-03-28T22:08:29.679Z,99210.06
2023-03-28T22:10:57.899Z,99207.53
2023-03-28T22:13:24.934Z,99193.78
2023-03-28T22:15:51.975Z,99196.66
2023-03-28T22:18:18.795Z,99200.97
2023-03-28T22:20:46.107Z,99219.34
2023-03-28T22:23:12.582Z,99219.34
2023-03-28T22:25:39.413Z,99231.94
2023-03-28T22:28:09.148Z,99237.09
2023-03-28T22:30:37.993Z,99247.56
2023-03-28T22:33:05.299Z,99223.81
2023-03-28T22:35:32.346Z,99227.59
2023-03-28T22:37:59.784Z,99240.16
2023-03-28T22:40:26.757Z,99255.25
2023-03-28T22:42:53.205Z,99250.63
2023-03-28T22:45:22.913Z,99273.31
2023-03-28T22:47:50.535Z,99292.56
2023-03-28T22:50:18.502Z,99282.13
2023-03-28T22:52:45.951Z,99294.72
2023-03-28T22:55:12.752Z,99294.59
2023-03-28T22:57:40.665Z,99299.53
2023-03-28T23:00:08.178Z,99310.31
2023-03-28T23:02:35.304Z,99316.91
2023-03-28T23:05:01.891Z,99319.59
2023-03-28T23:07:28.618Z,99318.16
2023-03-28T23:09:55.508Z,99335.34
2023-03-28T23:12:21.974Z,99352.72
2023-03-28T23:14:48.744Z,99387.72
2023-03-28T23:17:15.377Z,99414.00
2023-03-28T23:19:42.156Z,99444.75
2023-03-28T23:22:08.510Z,99459.75
2023-03-28T23:24:35.116Z,99511.31
2023-03-28T23:27:01.682Z,99556.84
2023-03-28T23:29:28.149Z,99564.28
2023-03-28T23:31:54.843Z,99578.13
2023-03-28T23:34:21.314Z,99574.19
2023-03-28T23:36:48.015Z,99584.25
2023-03-28T23:39:14.789Z,99607.88
2023-03-28T23:41:41.357Z,99635.97
2023-03-28T23:44:07.836Z,99640.47
2023-03-28T23:46:34.600Z,99654.88
2023-03-28T23:49:01.323Z,99664.09
2023-03-28T23:51:28.114Z,99642.22
2023-03-28T23:53:55.427Z,99637.22
2023-03-28T23:56:22.196Z,99635.84
2023-03-28T23:58:48.630Z,99630.81
